PWSweather.com
Personal Weather Stations
Station Observations
COONRAPIDS
Minneapolis, MN 55433

Minneapolis, MN 55433

Lat: 45.187721, Lon: -93.36828

Elevation: 898

Station Type: Davis Vantage Pro 2

High Low Average
Temperature 59.9°F15.5°C 37.0°F2.8°C 49.6°F9.8°C
Dew Point 38.1°F3.4°C 22.4°F-5.3°C 31.6°F-0.2°C
Winds 5.8 mph 9.3 kmh Calm Calm 1.0 mph S1.6 kmh S
Wind Gusts 13.8 mph22.2 kmh -- 3.0 mph4.8 kmh
Humidity 85% 33% 53%
Pressure 30.25 in1024.4 mb 30.09 in1019.0 mb -
Precipitation 0.00 in0.0 mm - -
Hour Temp Dew Point Humidity Winds Wind Gusts Pressure Precip Precip Rate Daily Precip Total
12:00 AM 46.7°F8.2°C 36.0°F2.2°C 66% Calm Calm -- 30.11 in1019.6 mb - 0.00 in0.0 mm 0.00 in0.0 mm
12:10 AM 46.2°F7.9°C 35.4°F1.9°C 66% Calm Calm -- 30.11 in1019.6 mb - 0.00 in0.0 mm 0.00 in0.0 mm
12:20 AM 45.8°F7.7°C 35.8°F2.1°C 68% Calm Calm -- 30.11 in1019.6 mb - 0.00 in0.0 mm 0.00 in0.0 mm
12:30 AM 45.6°F7.6°C 36.0°F2.2°C 69% Calm Calm -- 30.11 in1019.6 mb - 0.00 in0.0 mm 0.00 in0.0 mm
12:40 AM 45.3°F7.4°C 35.7°F2.1°C 69% Calm Calm -- 30.11 in1019.6 mb - 0.00 in0.0 mm 0.00 in0.0 mm
12:50 AM 44.9°F7.2°C 35.8°F2.1°C 70% Calm Calm -- 30.11 in1019.6 mb - 0.00 in0.0 mm 0.00 in0.0 mm
01:00 AM 44.8°F7.1°C 36.0°F2.2°C 71% Calm Calm -- 30.11 in1019.6 mb - 0.00 in0.0 mm 0.00 in0.0 mm
01:10 AM 44.4°F6.9°C 35.2°F1.8°C 70% Calm Calm -- 30.11 in1019.6 mb - 0.00 in0.0 mm 0.00 in0.0 mm
01:20 AM 43.9°F6.6°C 35.1°F1.7°C 71% Calm Calm -- 30.11 in1019.6 mb - 0.00 in0.0 mm 0.00 in0.0 mm
01:30 AM 43.6°F6.4°C 35.2°F1.8°C 72% Calm Calm -- 30.11 in1019.6 mb - 0.00 in0.0 mm 0.00 in0.0 mm
01:40 AM 43.3°F6.3°C 35.2°F1.8°C 73% Calm Calm -- 30.11 in1019.6 mb - 0.00 in0.0 mm 0.00 in0.0 mm
01:50 AM 43.1°F6.2°C 35.4°F1.9°C 74% Calm Calm -- 30.11 in1019.6 mb - 0.00 in0.0 mm 0.00 in0.0 mm
02:00 AM 42.8°F6.0°C 35.1°F1.7°C 74% Calm Calm -- 30.11 in1019.6 mb - 0.00 in0.0 mm 0.00 in0.0 mm
02:10 AM 42.5°F5.8°C 34.8°F1.6°C 74% Calm Calm -- 30.11 in1019.6 mb - 0.00 in0.0 mm 0.00 in0.0 mm
02:20 AM 42.2°F5.7°C 34.8°F1.6°C 75% Calm Calm -- 30.11 in1019.6 mb - 0.00 in0.0 mm 0.00 in0.0 mm
02:30 AM 41.9°F5.5°C 34.6°F1.4°C 75% Calm Calm -- 30.11 in1019.6 mb - 0.00 in0.0 mm 0.00 in0.0 mm
02:40 AM 41.6°F5.3°C 34.6°F1.4°C 76% Calm Calm -- 30.11 in1019.6 mb - 0.00 in0.0 mm 0.00 in0.0 mm
02:50 AM 41.2°F5.1°C 34.2°F1.2°C 76% Calm Calm -- 30.11 in1019.6 mb - 0.00 in0.0 mm 0.00 in0.0 mm
03:00 AM 41.0°F5.0°C 34.7°F1.5°C 78% Calm Calm -- 30.10 in1019.3 mb - 0.00 in0.0 mm 0.00 in0.0 mm
03:10 AM 40.8°F4.9°C 34.5°F1.4°C 78% Calm Calm -- 30.10 in1019.3 mb - 0.00 in0.0 mm 0.00 in0.0 mm
03:20 AM 40.8°F4.9°C 34.4°F1.3°C 78% Calm Calm -- 30.10 in1019.3 mb - 0.00 in0.0 mm 0.00 in0.0 mm
03:30 AM 40.7°F4.8°C 34.7°F1.5°C 79% Calm Calm -- 30.10 in1019.3 mb - 0.00 in0.0 mm 0.00 in0.0 mm
03:40 AM 40.6°F4.8°C 34.6°F1.4°C 79% Calm Calm -- 30.10 in1019.3 mb - 0.00 in0.0 mm 0.00 in0.0 mm
03:50 AM 40.4°F4.7°C 34.4°F1.3°C 79% Calm Calm -- 30.10 in1019.3 mb - 0.00 in0.0 mm 0.00 in0.0 mm
04:00 AM 40.3°F4.6°C 34.3°F1.3°C 79% Calm Calm -- 30.10 in1019.3 mb - 0.00 in0.0 mm 0.00 in0.0 mm
04:10 AM 40.0°F4.4°C 34.0°F1.1°C 79% Calm Calm -- 30.10 in1019.3 mb - 0.00 in0.0 mm 0.00 in0.0 mm
04:20 AM 39.7°F4.3°C 34.0°F1.1°C 80% Calm Calm -- 30.09 in1019.0 mb - 0.00 in0.0 mm 0.00 in0.0 mm
04:30 AM 39.5°F4.2°C 33.8°F1.0°C 80% Calm Calm -- 30.10 in1019.3 mb - 0.00 in0.0 mm 0.00 in0.0 mm
04:40 AM 39.2°F4.0°C 33.5°F0.8°C 80% Calm Calm -- 30.09 in1019.0 mb - 0.00 in0.0 mm 0.00 in0.0 mm
04:50 AM 38.9°F3.8°C 33.3°F0.7°C 80% Calm Calm -- 30.10 in1019.3 mb - 0.00 in0.0 mm 0.00 in0.0 mm
05:00 AM 38.8°F3.8°C 33.4°F0.8°C 81% Calm Calm -- 30.10 in1019.3 mb - 0.00 in0.0 mm 0.00 in0.0 mm
05:10 AM 38.6°F3.7°C 33.3°F0.7°C 81% Calm Calm -- 30.10 in1019.3 mb - 0.00 in0.0 mm 0.00 in0.0 mm
05:20 AM 38.5°F3.6°C 33.4°F0.8°C 82% Calm Calm -- 30.10 in1019.3 mb - 0.00 in0.0 mm 0.00 in0.0 mm
05:30 AM 38.2°F3.4°C 32.9°F0.5°C 81% Calm Calm -- 30.10 in1019.3 mb - 0.00 in0.0 mm 0.00 in0.0 mm
05:40 AM 37.9°F3.3°C 32.9°F0.5°C 82% Calm Calm -- 30.10 in1019.3 mb - 0.00 in0.0 mm 0.00 in0.0 mm
05:50 AM 37.7°F3.2°C 32.7°F0.4°C 82% Calm Calm -- 30.10 in1019.3 mb - 0.00 in0.0 mm 0.00 in0.0 mm
06:00 AM 37.7°F3.2°C 33.0°F0.6°C 83% Calm Calm -- 30.10 in1019.3 mb - 0.00 in0.0 mm 0.00 in0.0 mm
06:10 AM 37.5°F3.1°C 32.5°F0.3°C 82% Calm Calm -- 30.10 in1019.3 mb - 0.00 in0.0 mm 0.00 in0.0 mm
06:20 AM 37.3°F2.9°C 32.6°F0.3°C 83% Calm Calm -- 30.10 in1019.3 mb - 0.00 in0.0 mm 0.00 in0.0 mm
06:30 AM 37.2°F2.9°C 32.5°F0.3°C 83% Calm Calm -- 30.10 in1019.3 mb - 0.00 in0.0 mm 0.00 in0.0 mm
06:40 AM 37.1°F2.8°C 32.4°F0.2°C 83% Calm Calm -- 30.10 in1019.3 mb - 0.00 in0.0 mm 0.00 in0.0 mm
06:50 AM 37.0°F2.8°C 32.3°F0.2°C 83% Calm Calm -- 30.10 in1019.3 mb - 0.00 in0.0 mm 0.00 in0.0 mm
07:00 AM 37.1°F2.8°C 32.7°F0.4°C 84% Calm Calm -- 30.10 in1019.3 mb - 0.00 in0.0 mm 0.00 in0.0 mm
07:10 AM 37.5°F3.1°C 33.1°F0.6°C 84% Calm Calm -- 30.10 in1019.3 mb - 0.00 in0.0 mm 0.00 in0.0 mm
07:20 AM 38.2°F3.4°C 34.1°F1.2°C 85% Calm Calm -- 30.11 in1019.6 mb - 0.00 in0.0 mm 0.00 in0.0 mm
07:30 AM 39.0°F3.9°C 34.9°F1.6°C 85% Calm Calm 1.2 mph1.9 kmh 30.11 in1019.6 mb - 0.00 in0.0 mm 0.00 in0.0 mm
07:40 AM 40.8°F4.9°C 36.6°F2.6°C 85% Calm Calm 2.3 mph3.7 kmh 30.11 in1019.6 mb - 0.00 in0.0 mm 0.00 in0.0 mm
07:50 AM 43.7°F6.5°C 37.9°F3.3°C 80% Calm Calm -- 30.11 in1019.6 mb - 0.00 in0.0 mm 0.00 in0.0 mm
08:00 AM 45.6°F7.6°C 37.5°F3.1°C 73% 1.2 mph N1.9 kmh N 2.3 mph3.7 kmh 30.12 in1020.0 mb - 0.00 in0.0 mm 0.00 in0.0 mm
08:10 AM 47.0°F8.3°C 37.7°F3.2°C 70% Calm Calm -- 30.12 in1020.0 mb - 0.00 in0.0 mm 0.00 in0.0 mm
08:20 AM 47.7°F8.7°C 36.9°F2.7°C 66% Calm Calm 3.5 mph5.6 kmh 30.12 in1020.0 mb - 0.00 in0.0 mm 0.00 in0.0 mm
08:30 AM 48.9°F9.4°C 37.6°F3.1°C 65% Calm Calm 1.2 mph1.9 kmh 30.12 in1020.0 mb - 0.00 in0.0 mm 0.00 in0.0 mm
08:40 AM 49.9°F9.9°C 37.4°F3.0°C 62% 2.3 mph NE3.7 kmh NE 4.6 mph7.4 kmh 30.12 in1020.0 mb - 0.00 in0.0 mm 0.00 in0.0 mm
08:50 AM 50.9°F10.5°C 37.1°F2.8°C 59% 2.3 mph N3.7 kmh N 4.6 mph7.4 kmh 30.12 in1020.0 mb - 0.00 in0.0 mm 0.00 in0.0 mm
09:00 AM 51.9°F11.1°C 36.3°F2.4°C 55% 3.5 mph NE5.6 kmh NE 5.8 mph9.3 kmh 30.13 in1020.3 mb - 0.00 in0.0 mm 0.00 in0.0 mm
09:10 AM 52.9°F11.6°C 36.2°F2.3°C 53% 3.5 mph N5.6 kmh N 6.9 mph11.1 kmh 30.13 in1020.3 mb - 0.00 in0.0 mm 0.00 in0.0 mm
09:20 AM 53.5°F11.9°C 34.8°F1.6°C 49% 1.2 mph NNE1.9 kmh NNE 2.3 mph3.7 kmh 30.14 in1020.7 mb - 0.00 in0.0 mm 0.00 in0.0 mm
09:30 AM 54.4°F12.4°C 35.6°F2.0°C 49% 1.2 mph N1.9 kmh N 3.5 mph5.6 kmh 30.14 in1020.7 mb - 0.00 in0.0 mm 0.00 in0.0 mm
09:40 AM 55.7°F13.2°C 35.2°F1.8°C 46% 4.6 mph NE7.4 kmh NE 6.9 mph11.1 kmh 30.13 in1020.3 mb - 0.00 in0.0 mm 0.00 in0.0 mm
09:50 AM 56.8°F13.8°C 34.5°F1.4°C 43% 3.5 mph N5.6 kmh N 5.8 mph9.3 kmh 30.14 in1020.7 mb - 0.00 in0.0 mm 0.00 in0.0 mm
10:00 AM 57.4°F14.1°C 33.3°F0.7°C 40% 2.3 mph N3.7 kmh N 2.3 mph3.7 kmh 30.14 in1020.7 mb - 0.00 in0.0 mm 0.00 in0.0 mm
10:10 AM 58.0°F14.4°C 35.0°F1.7°C 42% Calm Calm -- 30.14 in1020.7 mb - 0.00 in0.0 mm 0.00 in0.0 mm
10:20 AM 59.1°F15.1°C 33.5°F0.8°C 38% 5.8 mph NNE9.3 kmh NNE 11.5 mph18.5 kmh 30.14 in1020.7 mb - 0.00 in0.0 mm 0.00 in0.0 mm
10:30 AM 59.7°F15.4°C 32.7°F0.4°C 36% 2.3 mph NNE3.7 kmh NNE 4.6 mph7.4 kmh 30.14 in1020.7 mb - 0.00 in0.0 mm 0.00 in0.0 mm
10:40 AM 59.5°F15.3°C 32.5°F0.3°C 36% 3.5 mph NNE5.6 kmh NNE 6.9 mph11.1 kmh 30.14 in1020.7 mb - 0.00 in0.0 mm 0.00 in0.0 mm
10:50 AM 58.7°F14.8°C 31.1°F-0.5°C 35% 4.6 mph NNE7.4 kmh NNE 8.1 mph13.0 kmh 30.15 in1021.0 mb - 0.00 in0.0 mm 0.00 in0.0 mm
11:00 AM 58.1°F14.5°C 31.3°F-0.4°C 36% 4.6 mph NNE7.4 kmh NNE 10.4 mph16.7 kmh 30.16 in1021.3 mb - 0.00 in0.0 mm 0.00 in0.0 mm
11:10 AM 58.2°F14.6°C 32.0°F0.0°C 37% 2.3 mph NNE3.7 kmh NNE 4.6 mph7.4 kmh 30.16 in1021.3 mb - 0.00 in0.0 mm 0.00 in0.0 mm
11:20 AM 58.4°F14.7°C 30.8°F-0.7°C 35% 5.8 mph NNE9.3 kmh NNE 11.5 mph18.5 kmh 30.16 in1021.3 mb - 0.00 in0.0 mm 0.00 in0.0 mm
11:30 AM 58.4°F14.7°C 30.8°F-0.7°C 35% 5.8 mph N9.3 kmh N 11.5 mph18.5 kmh 30.16 in1021.3 mb - 0.00 in0.0 mm 0.00 in0.0 mm
11:40 AM 58.4°F14.7°C 32.2°F0.1°C 37% 3.5 mph NNW5.6 kmh NNW 8.1 mph13.0 kmh 30.16 in1021.3 mb - 0.00 in0.0 mm 0.00 in0.0 mm
11:50 AM 58.3°F14.6°C 32.1°F0.1°C 37% 4.6 mph N7.4 kmh N 8.1 mph13.0 kmh 30.17 in1021.7 mb - 0.00 in0.0 mm 0.00 in0.0 mm
12:00 PM 57.8°F14.3°C 31.7°F-0.2°C 37% 4.6 mph N7.4 kmh N 6.9 mph11.1 kmh 30.17 in1021.7 mb - 0.00 in0.0 mm 0.00 in0.0 mm
12:10 PM 58.3°F14.6°C 32.1°F0.1°C 37% 3.5 mph N5.6 kmh N 5.8 mph9.3 kmh 30.17 in1021.7 mb - 0.00 in0.0 mm 0.00 in0.0 mm
12:20 PM 59.3°F15.2°C 33.0°F0.6°C 37% 3.5 mph N5.6 kmh N 10.4 mph16.7 kmh 30.17 in1021.7 mb - 0.00 in0.0 mm 0.00 in0.0 mm
12:30 PM 59.9°F15.5°C 32.2°F0.1°C 35% 2.3 mph NE3.7 kmh NE 6.9 mph11.1 kmh 30.17 in1021.7 mb - 0.00 in0.0 mm 0.00 in0.0 mm
12:40 PM 59.3°F15.2°C 30.9°F-0.6°C 34% 4.6 mph NNE7.4 kmh NNE 8.1 mph13.0 kmh 30.17 in1021.7 mb - 0.00 in0.0 mm 0.00 in0.0 mm
12:50 PM 59.5°F15.3°C 31.8°F-0.1°C 35% 4.6 mph N7.4 kmh N 12.7 mph20.4 kmh 30.17 in1021.7 mb - 0.00 in0.0 mm 0.00 in0.0 mm
01:00 PM 59.5°F15.3°C 31.1°F-0.5°C 34% 4.6 mph N7.4 kmh N 13.8 mph22.2 kmh 30.17 in1021.7 mb - 0.00 in0.0 mm 0.00 in0.0 mm
01:10 PM 59.3°F15.2°C 30.2°F-1.0°C 33% 4.6 mph N7.4 kmh N 4.6 mph7.4 kmh 30.17 in1021.7 mb - 0.00 in0.0 mm 0.00 in0.0 mm
01:20 PM 58.9°F14.9°C 30.5°F-0.8°C 34% 4.6 mph N7.4 kmh N 9.2 mph14.8 kmh 30.17 in1021.7 mb - 0.00 in0.0 mm 0.00 in0.0 mm
01:30 PM 58.7°F14.8°C 30.4°F-0.9°C 34% 4.6 mph N7.4 kmh N 9.2 mph14.8 kmh 30.17 in1021.7 mb - 0.00 in0.0 mm 0.00 in0.0 mm
01:40 PM 59.2°F15.1°C 31.6°F-0.2°C 35% 4.6 mph N7.4 kmh N 6.9 mph11.1 kmh 30.16 in1021.3 mb - 0.00 in0.0 mm 0.00 in0.0 mm
01:50 PM 59.4°F15.2°C 31.0°F-0.6°C 34% 3.5 mph N5.6 kmh N 5.8 mph9.3 kmh 30.17 in1021.7 mb - 0.00 in0.0 mm 0.00 in0.0 mm
02:00 PM 59.4°F15.2°C 31.7°F-0.2°C 35% 3.5 mph NNE5.6 kmh NNE 5.8 mph9.3 kmh 30.16 in1021.3 mb - 0.00 in0.0 mm 0.00 in0.0 mm
02:10 PM 59.9°F15.5°C 31.4°F-0.3°C 34% 3.5 mph N5.6 kmh N 5.8 mph9.3 kmh 30.17 in1021.7 mb - 0.00 in0.0 mm 0.00 in0.0 mm
02:20 PM 59.8°F15.4°C 31.4°F-0.3°C 34% 2.3 mph N3.7 kmh N 8.1 mph13.0 kmh 30.17 in1021.7 mb - 0.00 in0.0 mm 0.00 in0.0 mm
02:30 PM 59.3°F15.2°C 31.6°F-0.2°C 35% 4.6 mph N7.4 kmh N 6.9 mph11.1 kmh 30.17 in1021.7 mb - 0.00 in0.0 mm 0.00 in0.0 mm
02:40 PM 59.6°F15.3°C 31.2°F-0.4°C 34% 4.6 mph NE7.4 kmh NE 11.5 mph18.5 kmh 30.17 in1021.7 mb - 0.00 in0.0 mm 0.00 in0.0 mm
02:50 PM 59.1°F15.1°C 31.4°F-0.3°C 35% 5.8 mph N9.3 kmh N 11.5 mph18.5 kmh 30.17 in1021.7 mb - 0.00 in0.0 mm 0.00 in0.0 mm
03:00 PM 58.5°F14.7°C 32.3°F0.2°C 37% 3.5 mph N5.6 kmh N 6.9 mph11.1 kmh 30.17 in1021.7 mb - 0.00 in0.0 mm 0.00 in0.0 mm
03:10 PM 57.5°F14.2°C 33.3°F0.7°C 40% 4.6 mph N7.4 kmh N 6.9 mph11.1 kmh 30.17 in1021.7 mb - 0.00 in0.0 mm 0.00 in0.0 mm
03:20 PM 57.2°F14.0°C 36.0°F2.2°C 45% 3.5 mph N5.6 kmh N 9.2 mph14.8 kmh 30.17 in1021.7 mb - 0.00 in0.0 mm 0.00 in0.0 mm
03:30 PM 55.5°F13.1°C 35.6°F2.0°C 47% 3.5 mph N5.6 kmh N 6.9 mph11.1 kmh 30.18 in1022.0 mb - 0.00 in0.0 mm 0.00 in0.0 mm
03:40 PM 53.9°F12.2°C 36.2°F2.3°C 51% 3.5 mph N5.6 kmh N 8.1 mph13.0 kmh 30.17 in1021.7 mb - 0.00 in0.0 mm 0.00 in0.0 mm
03:50 PM 53.3°F11.8°C 36.1°F2.3°C 52% Calm Calm 5.8 mph9.3 kmh 30.17 in1021.7 mb - 0.00 in0.0 mm 0.00 in0.0 mm
04:00 PM 54.2°F12.3°C 36.9°F2.7°C 52% 3.5 mph NNE5.6 kmh NNE 6.9 mph11.1 kmh 30.17 in1021.7 mb - 0.00 in0.0 mm 0.00 in0.0 mm
04:10 PM 55.9°F13.3°C 37.5°F3.1°C 50% 1.2 mph NNW1.9 kmh NNW 5.8 mph9.3 kmh 30.17 in1021.7 mb - 0.00 in0.0 mm 0.00 in0.0 mm
04:20 PM 56.8°F13.8°C 37.3°F2.9°C 48% 2.3 mph NNE3.7 kmh NNE 2.3 mph3.7 kmh 30.17 in1021.7 mb - 0.00 in0.0 mm 0.00 in0.0 mm
04:30 PM 57.0°F13.9°C 36.4°F2.4°C 46% 4.6 mph N7.4 kmh N 4.6 mph7.4 kmh 30.17 in1021.7 mb - 0.00 in0.0 mm 0.00 in0.0 mm
04:40 PM 54.6°F12.6°C 36.9°F2.7°C 51% 1.2 mph NNE1.9 kmh NNE 5.8 mph9.3 kmh 30.17 in1021.7 mb - 0.00 in0.0 mm 0.00 in0.0 mm
04:50 PM 54.1°F12.3°C 37.3°F2.9°C 53% Calm Calm -- 30.17 in1021.7 mb - 0.00 in0.0 mm 0.00 in0.0 mm
05:00 PM 54.4°F12.4°C 38.1°F3.4°C 54% 1.2 mph N1.9 kmh N 6.9 mph11.1 kmh 30.17 in1021.7 mb - 0.00 in0.0 mm 0.00 in0.0 mm
05:10 PM 55.8°F13.2°C 37.4°F3.0°C 50% Calm Calm -- 30.17 in1021.7 mb - 0.00 in0.0 mm 0.00 in0.0 mm
05:20 PM 56.9°F13.8°C 36.9°F2.7°C 47% 3.5 mph NNW5.6 kmh NNW 3.5 mph5.6 kmh 30.17 in1021.7 mb - 0.00 in0.0 mm 0.00 in0.0 mm
05:30 PM 56.9°F13.8°C 35.8°F2.1°C 45% 1.2 mph N1.9 kmh N 4.6 mph7.4 kmh 30.18 in1022.0 mb - 0.00 in0.0 mm 0.00 in0.0 mm
05:40 PM 57.4°F14.1°C 36.2°F2.3°C 45% Calm Calm 1.2 mph1.9 kmh 30.17 in1021.7 mb - 0.00 in0.0 mm 0.00 in0.0 mm
05:50 PM 58.1°F14.5°C 36.9°F2.7°C 45% Calm Calm 3.5 mph5.6 kmh 30.17 in1021.7 mb - 0.00 in0.0 mm 0.00 in0.0 mm
06:00 PM 58.0°F14.4°C 31.2°F-0.4°C 36% 1.2 mph N1.9 kmh N 9.2 mph14.8 kmh 30.18 in1022.0 mb - 0.00 in0.0 mm 0.00 in0.0 mm
06:10 PM 57.5°F14.2°C 31.4°F-0.3°C 37% 2.3 mph N3.7 kmh N 5.8 mph9.3 kmh 30.18 in1022.0 mb - 0.00 in0.0 mm 0.00 in0.0 mm
06:20 PM 56.7°F13.7°C 29.3°F-1.5°C 35% 3.5 mph NNW5.6 kmh NNW 10.4 mph16.7 kmh 30.18 in1022.0 mb - 0.00 in0.0 mm 0.00 in0.0 mm
06:30 PM 56.3°F13.5°C 29.7°F-1.3°C 36% Calm Calm 2.3 mph3.7 kmh 30.18 in1022.0 mb - 0.00 in0.0 mm 0.00 in0.0 mm
06:40 PM 56.5°F13.6°C 29.8°F-1.2°C 36% 2.3 mph NNE3.7 kmh NNE 6.9 mph11.1 kmh 30.18 in1022.0 mb - 0.00 in0.0 mm 0.00 in0.0 mm
06:50 PM 56.2°F13.4°C 29.6°F-1.3°C 36% 1.2 mph N1.9 kmh N 4.6 mph7.4 kmh 30.18 in1022.0 mb - 0.00 in0.0 mm 0.00 in0.0 mm
07:00 PM 55.7°F13.2°C 29.8°F-1.2°C 37% Calm Calm -- 30.18 in1022.0 mb - 0.00 in0.0 mm 0.00 in0.0 mm
07:10 PM 55.7°F13.2°C 29.8°F-1.2°C 37% 1.2 mph NNE1.9 kmh NNE 5.8 mph9.3 kmh 30.18 in1022.0 mb - 0.00 in0.0 mm 0.00 in0.0 mm
07:20 PM 54.7°F12.6°C 30.2°F-1.0°C 39% 1.2 mph N1.9 kmh N 3.5 mph5.6 kmh 30.18 in1022.0 mb - 0.00 in0.0 mm 0.00 in0.0 mm
07:30 PM 54.0°F12.2°C 29.6°F-1.3°C 39% Calm Calm -- 30.18 in1022.0 mb - 0.00 in0.0 mm 0.00 in0.0 mm
07:40 PM 53.5°F11.9°C 29.1°F-1.6°C 39% Calm Calm -- 30.18 in1022.0 mb - 0.00 in0.0 mm 0.00 in0.0 mm
07:50 PM 53.0°F11.7°C 26.0°F-3.3°C 35% 1.2 mph N1.9 kmh N 3.5 mph5.6 kmh 30.18 in1022.0 mb - 0.00 in0.0 mm 0.00 in0.0 mm
08:00 PM 52.5°F11.4°C 26.2°F-3.2°C 36% Calm Calm -- 30.18 in1022.0 mb - 0.00 in0.0 mm 0.00 in0.0 mm
08:10 PM 51.7°F10.9°C 24.9°F-3.9°C 35% Calm Calm -- 30.19 in1022.4 mb - 0.00 in0.0 mm 0.00 in0.0 mm
08:20 PM 51.1°F10.6°C 24.4°F-4.2°C 35% 1.2 mph NNW1.9 kmh NNW 2.3 mph3.7 kmh 30.19 in1022.4 mb - 0.00 in0.0 mm 0.00 in0.0 mm
08:30 PM 50.5°F10.3°C 23.2°F-4.9°C 34% Calm Calm -- 30.19 in1022.4 mb - 0.00 in0.0 mm 0.00 in0.0 mm
08:40 PM 50.0°F10.0°C 23.4°F-4.8°C 35% Calm Calm -- 30.19 in1022.4 mb - 0.00 in0.0 mm 0.00 in0.0 mm
08:50 PM 49.3°F9.6°C 23.4°F-4.8°C 36% Calm Calm -- 30.19 in1022.4 mb - 0.00 in0.0 mm 0.00 in0.0 mm
09:00 PM 48.9°F9.4°C 23.1°F-4.9°C 36% Calm Calm -- 30.20 in1022.7 mb - 0.00 in0.0 mm 0.00 in0.0 mm
09:10 PM 48.5°F9.2°C 22.7°F-5.2°C 36% Calm Calm -- 30.20 in1022.7 mb - 0.00 in0.0 mm 0.00 in0.0 mm
09:20 PM 48.2°F9.0°C 22.4°F-5.3°C 36% Calm Calm 1.2 mph1.9 kmh 30.20 in1022.7 mb - 0.00 in0.0 mm 0.00 in0.0 mm
09:30 PM 47.6°F8.7°C 22.6°F-5.2°C 37% 1.2 mph N1.9 kmh N 1.2 mph1.9 kmh 30.21 in1023.0 mb - 0.00 in0.0 mm 0.00 in0.0 mm
09:40 PM 47.3°F8.5°C 22.9°F-5.1°C 38% Calm Calm -- 30.21 in1023.0 mb - 0.00 in0.0 mm 0.00 in0.0 mm
09:50 PM 46.9°F8.3°C 22.6°F-5.2°C 38% Calm Calm -- 30.21 in1023.0 mb - 0.00 in0.0 mm 0.00 in0.0 mm
10:00 PM 46.7°F8.2°C 23.0°F-5.0°C 39% Calm Calm -- 30.21 in1023.0 mb - 0.00 in0.0 mm 0.00 in0.0 mm
10:10 PM 46.5°F8.1°C 22.8°F-5.1°C 39% Calm Calm -- 30.21 in1023.0 mb - 0.00 in0.0 mm 0.00 in0.0 mm
10:20 PM 46.1°F7.8°C 23.1°F-4.9°C 40% 1.2 mph NNE1.9 kmh NNE 2.3 mph3.7 kmh 30.22 in1023.4 mb - 0.00 in0.0 mm 0.00 in0.0 mm
10:30 PM 45.9°F7.7°C 24.1°F-4.4°C 42% Calm Calm -- 30.21 in1023.0 mb - 0.00 in0.0 mm 0.00 in0.0 mm
10:40 PM 45.6°F7.6°C 23.8°F-4.6°C 42% Calm Calm 2.3 mph3.7 kmh 30.22 in1023.4 mb - 0.00 in0.0 mm 0.00 in0.0 mm
10:50 PM 45.5°F7.5°C 24.3°F-4.3°C 43% 2.3 mph N3.7 kmh N 3.5 mph5.6 kmh 30.22 in1023.4 mb - 0.00 in0.0 mm 0.00 in0.0 mm
11:00 PM 45.6°F7.6°C 24.9°F-3.9°C 44% 3.5 mph N5.6 kmh N 3.5 mph5.6 kmh 30.22 in1023.4 mb - 0.00 in0.0 mm 0.00 in0.0 mm
11:10 PM 45.5°F7.5°C 24.8°F-4.0°C 44% 1.2 mph NNE1.9 kmh NNE 3.5 mph5.6 kmh 30.23 in1023.7 mb - 0.00 in0.0 mm 0.00 in0.0 mm
11:20 PM 45.4°F7.4°C 24.7°F-4.1°C 44% 1.2 mph NNE1.9 kmh NNE 1.2 mph1.9 kmh 30.23 in1023.7 mb - 0.00 in0.0 mm 0.00 in0.0 mm
11:30 PM 45.2°F7.3°C 25.1°F-3.8°C 45% Calm Calm 3.5 mph5.6 kmh 30.23 in1023.7 mb - 0.00 in0.0 mm 0.00 in0.0 mm
11:40 PM 44.7°F7.1°C 25.2°F-3.8°C 46% Calm Calm -- 30.23 in1023.7 mb - 0.00 in0.0 mm 0.00 in0.0 mm
11:50 PM 44.2°F6.8°C 25.2°F-3.8°C 47% Calm Calm -- 30.23 in1023.7 mb - 0.00 in0.0 mm 0.00 in0.0 mm